sim
Sign-in with your pilot id or email,
or register
Callsign
Passwort

Schedule Details

Flight Number: DLH1703 (2)
Departure: Sofia Airport (LBSF) at 11:50
Arrival: Munich Airport (EDDM) at 13:50
Route: Lufthansa Passenger Schedule. Enter filed route here before submitting Pirep.

Weather Information
Getting current METAR information for LBSF 291500Z 28009KT 9999 BKN076 14/10 Q1013 TEMPO RA
Getting current METAR information for EDDM 291450Z 26010KT 9999 4000SE -RADZ FEW006 SCT011 BKN018 11/10 Q1019 NOSIG

Schedule Frequency

Route Map